Time;durP1;ratioP1;P1;durP2;ratioP2;P2;SDS_P1;SDS_P2;PMS_P1;PMS_P2;Temp;Humidity;BMP_temperature;BMP_pressure;BME280_temperature;BME280_humidity;BME280_pressure;Samples;Min_cycle;Max_cycle;Signal;HPM_P1;HPM_P2
2022/12/09 00:01:15;;;;;;;5.77;2.23;;;22.00;99.90;;;;;;4935293;29;20189;-71
2022/12/09 00:03:43;;;;;;;12.07;2.33;;;21.80;99.90;;;;;;4942318;29;20280;-71
2022/12/09 00:06:19;;;;;;;7.00;1.83;;;21.40;99.90;;;;;;4935499;29;20192;-72
2022/12/09 00:08:48;;;;;;;10.40;1.50;;;21.20;99.90;;;;;;4934396;29;20220;-72
2022/12/09 00:11:17;;;;;;;6.23;2.23;;;20.70;99.90;;;;;;4934453;29;20185;-70
2022/12/09 00:13:48;;;;;;;12.20;2.10;;;20.10;99.90;;;;;;4934881;29;20658;-71
2022/12/09 00:16:16;;;;;;;9.60;1.73;;;20.80;99.90;;;;;;4934795;29;20233;-69
2022/12/09 00:18:45;;;;;;;9.73;2.00;;;22.20;99.90;;;;;;4952776;29;20186;-69
2022/12/09 00:21:17;;;;;;;7.87;2.10;;;22.60;99.90;;;;;;4946239;29;20280;-70
2022/12/09 00:23:46;;;;;;;8.40;1.83;;;24.00;99.90;;;;;;4933988;29;20192;-72
2022/12/09 00:26:15;;;;;;;7.20;1.73;;;25.40;99.90;;;;;;4934684;29;20665;-70
2022/12/09 00:28:43;;;;;;;7.47;2.03;;;26.40;99.90;;;;;;4934344;29;20571;-69
2022/12/09 00:31:18;;;;;;;5.60;1.73;;;25.90;95.30;;;;;;4934017;29;20287;-69
2022/12/09 00:33:46;;;;;;;9.67;1.50;;;25.60;99.90;;;;;;4934658;29;20195;-72
2022/12/09 00:36:18;;;;;;;6.67;1.63;;;25.70;99.90;;;;;;4934321;29;20588;-70
2022/12/09 00:38:47;;;;;;;8.87;1.90;;;26.40;98.00;;;;;;4933682;29;20208;-71
2022/12/09 00:41:15;;;;;;;10.43;1.87;;;26.40;91.20;;;;;;4934641;29;20193;-69
2022/12/09 00:43:44;;;;;;;5.37;1.80;;;26.40;95.20;;;;;;4934251;29;20658;-68
2022/12/09 00:46:13;;;;;;;11.70;2.23;;;26.20;97.70;;;;;;4933844;29;20228;-69
2022/12/09 00:48:42;;;;;;;8.93;1.60;;;25.40;90.20;;;;;;4934224;29;20557;-71
2022/12/09 00:51:13;;;;;;;8.07;1.70;;;24.20;96.90;;;;;;4934816;29;20219;-77
2022/12/09 00:53:42;;;;;;;8.40;2.30;;;23.70;99.90;;;;;;4932108;29;20626;-76
2022/12/09 00:56:10;;;;;;;10.73;1.90;;;23.20;99.90;;;;;;4916347;29;20379;-72
2022/12/09 00:58:38;;;;;;;7.77;1.60;;;23.40;99.90;;;;;;4928903;29;20552;-76
2022/12/09 01:01:05;;;;;;;5.73;1.30;;;23.20;99.90;;;;;;4937498;29;20196;-69
2022/12/09 01:03:33;;;;;;;7.07;1.63;;;22.60;99.90;;;;;;4938053;29;20197;-69
2022/12/09 01:06:06;;;;;;;7.33;1.63;;;21.90;99.90;;;;;;4938005;29;20702;-69
2022/12/09 01:08:34;;;;;;;4.63;1.13;;;22.10;99.90;;;;;;4937406;29;20229;-69
2022/12/09 01:11:07;;;;;;;4.07;1.10;;;22.10;99.90;;;;;;4938177;29;20191;-70
2022/12/09 01:13:35;;;;;;;8.60;1.70;;;22.80;99.90;;;;;;4936825;29;20188;-70
2022/12/09 01:16:03;;;;;;;6.03;1.47;;;23.50;99.90;;;;;;4937154;29;20313;-69
2022/12/09 01:18:30;;;;;;;7.10;1.70;;;24.30;99.90;;;;;;4936886;29;20186;-71
2022/12/09 01:20:59;;;;;;;9.10;1.87;;;25.00;99.90;;;;;;4936841;29;20185;-71
2022/12/09 01:23:27;;;;;;;7.73;1.40;;;25.20;98.10;;;;;;4936955;29;20233;-71
2022/12/09 01:25:55;;;;;;;8.20;1.83;;;24.90;97.10;;;;;;4937277;29;20184;-72
2022/12/09 01:28:22;;;;;;;5.10;1.60;;;24.20;97.90;;;;;;4936838;29;20666;-71
2022/12/09 01:30:50;;;;;;;7.67;1.40;;;24.20;99.10;;;;;;4937369;29;20188;-70
2022/12/09 01:33:18;;;;;;;6.63;1.97;;;24.40;98.50;;;;;;4937347;29;20192;-71
2022/12/09 01:35:45;;;;;;;8.93;1.87;;;24.40;99.90;;;;;;4936207;29;20248;-72
2022/12/09 01:38:13;;;;;;;11.33;2.00;;;24.50;96.90;;;;;;4937144;29;20195;-72
2022/12/09 01:40:46;;;;;;;7.23;1.57;;;24.30;95.70;;;;;;4937373;29;20196;-72
2022/12/09 01:43:20;;;;;;;6.10;1.60;;;24.50;98.10;;;;;;4936772;29;20634;-70
2022/12/09 01:45:48;;;;;;;8.60;1.30;;;25.00;95.00;;;;;;4936889;29;20265;-71
2022/12/09 01:48:19;;;;;;;6.47;1.40;;;24.90;95.10;;;;;;4937021;29;20173;-70
2022/12/09 01:51:20;;;;;;;3.80;1.20;;;25.40;99.20;;;;;;4936118;29;20224;-75
2022/12/09 01:53:51;;;;;;;5.00;1.60;;;25.30;94.10;;;;;;4925361;29;20291;-72
2022/12/09 01:56:33;;;;;;;6.67;1.67;;;25.60;90.70;;;;;;4936670;29;20213;-70
2022/12/09 01:59:06;;;;;;;8.80;1.30;;;25.70;89.90;;;;;;4935840;29;20562;-72
2022/12/09 02:01:34;;;;;;;5.43;1.40;;;25.30;84.50;;;;;;4937208;29;20573;-71
2022/12/09 02:04:03;;;;;;;5.60;1.37;;;25.10;95.50;;;;;;4936580;29;20270;-73
2022/12/09 02:06:31;;;;;;;7.60;1.33;;;25.40;90.80;;;;;;4937085;29;20195;-71
2022/12/09 02:08:59;;;;;;;7.77;1.30;;;25.20;96.30;;;;;;4935754;29;20189;-74
2022/12/09 02:12:05;;;;;;;10.43;1.50;;;25.60;91.50;;;;;;4936518;29;20547;-72
2022/12/09 02:14:42;;;;;;;6.30;1.13;;;25.50;84.20;;;;;;4878049;29;20261;-71
2022/12/09 02:17:35;;;;;;;5.07;1.27;;;25.10;90.20;;;;;;4929122;29;20219;-75
2022/12/09 02:20:12;;;;;;;5.70;1.33;;;24.80;90.70;;;;;;4936522;29;20288;-73
2022/12/09 02:22:46;;;;;;;7.73;1.57;;;25.10;86.10;;;;;;4936685;29;20774;-75
2022/12/09 02:25:36;;;;;;;6.27;1.20;;;24.90;87.50;;;;;;4936775;29;20212;-72
2022/12/09 02:28:27;;;;;;;7.50;1.23;;;25.30;90.00;;;;;;4936274;29;20235;-76
2022/12/09 02:31:07;;;;;;;8.03;2.20;;;25.60;88.50;;;;;;4936574;29;20196;-71
2022/12/09 02:34:02;;;;;;;3.60;1.53;;;25.40;94.30;;;;;;4934619;29;20654;-71
2022/12/09 02:36:38;;;;;;;6.30;1.63;;;25.30;92.10;;;;;;4934994;29;20549;-70
2022/12/09 02:39:08;;;;;;;7.40;1.40;;;25.70;86.60;;;;;;4936493;29;20172;-74
2022/12/09 02:41:41;;;;;;;11.00;1.47;;;25.70;92.60;;;;;;4934617;29;20662;-70
2022/12/09 02:44:14;;;;;;;5.50;1.13;;;25.00;79.00;;;;;;4936001;29;20188;-69
2022/12/09 02:46:43;;;;;;;6.40;1.40;;;24.40;84.60;;;;;;4935698;29;20177;-69
2022/12/09 02:49:14;;;;;;;7.00;1.93;;;24.20;90.90;;;;;;4935557;29;20234;-69
2022/12/09 02:51:43;;;;;;;10.37;1.73;;;24.50;92.20;;;;;;4936051;29;20187;-70
2022/12/09 02:54:17;;;;;;;6.00;1.23;;;24.80;86.70;;;;;;4935547;29;20663;-72
2022/12/09 02:56:55;;;;;;;3.23;1.30;;;25.00;79.80;;;;;;4935334;29;20212;-73
2022/12/09 02:59:23;;;;;;;6.23;1.33;;;24.90;90.40;;;;;;4936016;29;20180;-72
2022/12/09 03:02:12;;;;;;;6.10;1.23;;;25.30;93.10;;;;;;4935948;29;20192;-68
2022/12/09 03:04:44;;;;;;;4.43;1.13;;;25.20;87.30;;;;;;4935361;29;20185;-68
2022/12/09 03:07:30;;;;;;;5.63;1.10;;;25.20;88.60;;;;;;4935515;29;20268;-69
2022/12/09 03:10:08;;;;;;;7.73;1.30;;;25.30;93.30;;;;;;4935392;29;20629;-69
2022/12/09 03:12:37;;;;;;;6.30;2.00;;;25.40;89.90;;;;;;4935552;29;20223;-70
2022/12/09 03:15:07;;;;;;;7.80;1.50;;;25.40;87.10;;;;;;4935517;29;20208;-72
2022/12/09 03:17:37;;;;;;;9.20;1.70;;;25.30;90.30;;;;;;4934545;29;20283;-73
2022/12/09 03:20:16;;;;;;;3.17;1.23;;;25.50;91.10;;;;;;4935118;29;20189;-70
2022/12/09 03:22:46;;;;;;;7.30;1.57;;;25.00;82.40;;;;;;4935385;29;20184;-70
2022/12/09 03:25:31;;;;;;;3.73;1.23;;;24.50;85.70;;;;;;4935133;29;20589;-71
2022/12/09 03:28:08;;;;;;;6.57;1.47;;;23.80;91.40;;;;;;4935090;29;20213;-70
2022/12/09 03:30:40;;;;;;;3.73;1.00;;;23.90;93.10;;;;;;4934844;29;20178;-69
2022/12/09 03:33:10;;;;;;;6.50;1.37;;;24.10;94.50;;;;;;4935051;29;20181;-69
2022/12/09 03:35:43;;;;;;;5.93;1.40;;;24.80;95.70;;;;;;4933024;29;20279;-71
2022/12/09 03:38:16;;;;;;;6.07;1.83;;;25.10;84.70;;;;;;4920904;29;20651;-70
2022/12/09 03:40:48;;;;;;;10.30;2.10;;;24.90;85.50;;;;;;4934978;29;20191;-70
2022/12/09 03:43:29;;;;;;;6.70;1.50;;;24.90;91.50;;;;;;4917919;29;20214;-72
2022/12/09 03:45:58;;;;;;;7.60;1.40;;;25.00;92.00;;;;;;4934703;29;20188;-69
2022/12/09 03:48:26;;;;;;;8.07;1.47;;;25.30;90.80;;;;;;4934672;29;20561;-70
2022/12/09 03:51:06;;;;;;;7.87;1.40;;;25.40;90.20;;;;;;4934832;29;20232;-72
2022/12/09 03:53:40;;;;;;;8.60;1.20;;;25.10;86.40;;;;;;4935071;29;20204;-69
2022/12/09 03:56:36;;;;;;;5.37;1.03;;;24.70;82.60;;;;;;4934057;29;20212;-74
2022/12/09 03:59:09;;;;;;;6.33;1.50;;;24.30;90.60;;;;;;4912234;29;20202;-72
2022/12/09 04:01:38;;;;;;;8.67;1.87;;;24.80;91.00;;;;;;4915896;29;20192;-72
2022/12/09 04:04:05;;;;;;;4.03;1.50;;;25.10;89.50;;;;;;4921365;29;20252;-72
2022/12/09 04:06:33;;;;;;;6.60;1.30;;;25.20;82.80;;;;;;4933818;29;20196;-75
2022/12/09 04:09:01;;;;;;;6.67;1.60;;;25.20;83.30;;;;;;4935582;29;20216;-72
2022/12/09 04:11:30;;;;;;;8.37;2.50;;;25.10;90.10;;;;;;4917269;29;20668;-73
2022/12/09 04:13:58;;;;;;;7.90;1.57;;;25.30;87.60;;;;;;4934178;29;20239;-73
2022/12/09 04:16:26;;;;;;;3.60;1.17;;;25.20;78.80;;;;;;4934876;29;20231;-73
2022/12/09 04:18:54;;;;;;;6.90;1.67;;;25.20;91.50;;;;;;4933973;29;20609;-71
2022/12/09 04:21:21;;;;;;;3.80;1.10;;;25.50;86.90;;;;;;4932969;29;20196;-72
2022/12/09 04:23:49;;;;;;;3.53;1.17;;;25.50;78.40;;;;;;4934509;29;20185;-73
2022/12/09 04:26:21;;;;;;;4.87;1.23;;;25.60;79.30;;;;;;4933535;29;20690;-72
2022/12/09 04:28:49;;;;;;;4.07;1.27;;;25.70;86.20;;;;;;4934160;29;20592;-72
2022/12/09 04:31:19;;;;;;;3.67;1.00;;;25.60;76.70;;;;;;4933355;29;20556;-73
2022/12/09 04:33:47;;;;;;;7.60;1.33;;;25.30;79.50;;;;;;4934288;29;20184;-72
2022/12/09 04:36:17;;;;;;;11.03;1.67;;;25.20;85.00;;;;;;4934024;29;20251;-72
2022/12/09 04:38:45;;;;;;;4.80;1.27;;;25.40;84.60;;;;;;4933825;29;20195;-73
2022/12/09 04:41:14;;;;;;;6.73;2.17;;;25.30;82.20;;;;;;4934292;29;20185;-72
2022/12/09 04:43:42;;;;;;;4.03;1.50;;;25.50;80.60;;;;;;4934313;29;20172;-73
2022/12/09 04:46:14;;;;;;;9.60;1.33;;;25.20;80.30;;;;;;4933316;29;20267;-72
2022/12/09 04:48:42;;;;;;;5.00;1.17;;;25.10;81.00;;;;;;4934028;29;20578;-74
2022/12/09 04:51:11;;;;;;;5.17;0.90;;;25.30;75.90;;;;;;4934206;29;20742;-72
2022/12/09 04:53:40;;;;;;;6.97;1.50;;;25.20;81.00;;;;;;4933589;29;20181;-72
2022/12/09 04:56:15;;;;;;;10.20;1.60;;;25.20;75.80;;;;;;4933428;29;20204;-68
2022/12/09 04:58:43;;;;;;;2.63;0.93;;;24.80;78.90;;;;;;4934094;29;20184;-73
2022/12/09 05:01:15;;;;;;;6.50;1.40;;;24.70;79.20;;;;;;4933484;29;20192;-70
2022/12/09 05:03:43;;;;;;;7.47;1.00;;;24.60;79.80;;;;;;4933070;29;20185;-70
2022/12/09 05:06:14;;;;;;;7.63;1.80;;;24.60;77.50;;;;;;4933696;29;20264;-70
2022/12/09 05:08:42;;;;;;;7.47;1.97;;;24.40;81.90;;;;;;4933670;29;20184;-73
2022/12/09 05:11:10;;;;;;;5.63;1.30;;;24.90;77.50;;;;;;4933649;29;20188;-71
2022/12/09 05:13:38;;;;;;;7.47;1.10;;;25.00;81.30;;;;;;4918597;29;20220;-72
2022/12/09 05:16:08;;;;;;;10.43;1.33;;;25.00;80.90;;;;;;4933485;29;20216;-71
2022/12/09 05:18:36;;;;;;;4.63;1.13;;;24.40;81.60;;;;;;4933992;29;20312;-71
2022/12/09 05:21:10;;;;;;;6.40;1.33;;;24.40;84.60;;;;;;4934017;29;20215;-71
2022/12/09 05:23:38;;;;;;;7.20;1.30;;;24.50;82.50;;;;;;4933064;29;20328;-73
2022/12/09 05:26:08;;;;;;;5.30;1.33;;;24.60;82.50;;;;;;4935705;29;20184;-72
2022/12/09 05:28:36;;;;;;;4.10;1.17;;;24.40;86.80;;;;;;4933205;29;20212;-72
2022/12/09 05:31:07;;;;;;;8.17;1.30;;;24.50;85.20;;;;;;4915938;29;20275;-73
2022/12/09 05:33:34;;;;;;;9.33;2.00;;;24.60;80.10;;;;;;4933609;29;20185;-72
2022/12/09 05:36:02;;;;;;;5.77;1.00;;;24.50;81.90;;;;;;4933441;29;20244;-73
2022/12/09 05:38:30;;;;;;;8.60;2.57;;;24.60;84.20;;;;;;4933190;29;20250;-75
2022/12/09 05:41:00;;;;;;;5.30;1.43;;;24.20;82.60;;;;;;4933164;29;20555;-73
2022/12/09 05:43:28;;;;;;;9.40;1.10;;;23.20;81.30;;;;;;4934053;29;20657;-73
2022/12/09 05:45:56;;;;;;;6.60;1.30;;;22.70;90.20;;;;;;4935193;29;20531;-74
2022/12/09 05:48:24;;;;;;;4.63;0.93;;;23.10;90.30;;;;;;4936967;29;20181;-73
2022/12/09 05:50:59;;;;;;;5.10;1.23;;;23.30;88.70;;;;;;4936710;29;20310;-72
2022/12/09 05:53:27;;;;;;;5.37;1.17;;;23.60;90.10;;;;;;4936612;29;20275;-73
2022/12/09 05:55:55;;;;;;;6.83;1.43;;;24.00;91.60;;;;;;4936960;29;20248;-73
2022/12/09 05:58:24;;;;;;;7.00;1.30;;;24.00;89.30;;;;;;4919913;29;20323;-74
2022/12/09 06:00:55;;;;;;;5.03;1.23;;;24.10;90.10;;;;;;4904304;29;20200;-74
2022/12/09 06:03:23;;;;;;;7.67;1.87;;;24.20;87.40;;;;;;4927984;29;20282;-73
2022/12/09 06:05:51;;;;;;;5.30;1.43;;;24.10;84.10;;;;;;4935004;29;20180;-72
2022/12/09 06:08:18;;;;;;;6.10;1.20;;;23.90;84.00;;;;;;4955521;29;20202;-72
2022/12/09 06:10:46;;;;;;;5.43;1.20;;;23.90;87.50;;;;;;4940481;29;20254;-73
2022/12/09 06:13:14;;;;;;;9.37;1.40;;;23.80;87.30;;;;;;4936598;29;20185;-73
2022/12/09 06:15:42;;;;;;;6.03;1.20;;;23.60;86.10;;;;;;4936220;29;20216;-73
2022/12/09 06:18:10;;;;;;;3.63;1.17;;;23.20;87.50;;;;;;4936684;29;20173;-72
2022/12/09 06:20:40;;;;;;;5.70;1.67;;;23.00;91.40;;;;;;4937122;29;20295;-72
2022/12/09 06:23:08;;;;;;;5.10;1.73;;;22.70;91.30;;;;;;4952947;29;20188;-72
2022/12/09 06:25:36;;;;;;;6.67;1.50;;;22.60;93.70;;;;;;4955235;29;20231;-72
2022/12/09 06:28:05;;;;;;;5.83;1.40;;;22.40;93.80;;;;;;4955364;29;20180;-73
2022/12/09 06:30:36;;;;;;;5.00;1.30;;;22.20;94.10;;;;;;4923133;29;20196;-73
2022/12/09 06:33:04;;;;;;;4.70;1.20;;;21.90;93.00;;;;;;4954297;29;20529;-73
2022/12/09 06:35:32;;;;;;;7.00;1.23;;;21.50;95.60;;;;;;4955061;29;20225;-74
2022/12/09 06:38:00;;;;;;;11.70;1.43;;;21.30;96.90;;;;;;4951681;29;20192;-73
2022/12/09 06:40:28;;;;;;;4.20;1.50;;;21.20;97.40;;;;;;4939586;29;20317;-74
2022/12/09 06:42:56;;;;;;;15.07;2.50;;;21.20;99.90;;;;;;4955198;29;20190;-73
2022/12/09 06:45:24;;;;;;;8.20;1.63;;;21.50;99.60;;;;;;4954657;29;20192;-73
2022/12/09 06:47:52;;;;;;;3.87;1.30;;;22.10;99.40;;;;;;4937972;29;20192;-74
2022/12/09 06:50:19;;;;;;;6.07;1.37;;;22.20;98.50;;;;;;4937061;29;20242;-73
2022/12/09 06:52:47;;;;;;;4.53;1.10;;;22.10;99.90;;;;;;4934769;29;20193;-73
2022/12/09 06:55:15;;;;;;;4.93;1.20;;;22.10;99.90;;;;;;4935025;29;20284;-74
2022/12/09 06:57:43;;;;;;;6.83;1.30;;;22.10;99.90;;;;;;4935832;29;20211;-74
2022/12/09 07:00:11;;;;;;;6.20;2.10;;;21.70;99.90;;;;;;4935251;29;20275;-73
2022/12/09 07:02:39;;;;;;;7.20;1.33;;;21.60;99.90;;;;;;4935023;29;20185;-73
2022/12/09 07:05:07;;;;;;;8.80;1.37;;;21.30;99.90;;;;;;4935666;29;20537;-74
2022/12/09 07:07:36;;;;;;;9.90;1.50;;;21.20;99.90;;;;;;4934931;29;20185;-74
2022/12/09 07:10:08;;;;;;;9.17;1.57;;;21.00;99.90;;;;;;4935368;29;20616;-73
2022/12/09 07:12:36;;;;;;;5.17;1.23;;;20.70;99.90;;;;;;4935094;29;20275;-74
2022/12/09 07:15:04;;;;;;;6.63;1.10;;;20.60;99.90;;;;;;4934921;29;20189;-74
2022/12/09 07:17:32;;;;;;;3.73;1.30;;;20.60;99.90;;;;;;4935446;29;20185;-74
2022/12/09 07:20:00;;;;;;;7.53;1.30;;;20.60;99.90;;;;;;4935424;29;20192;-72
2022/12/09 07:22:27;;;;;;;4.93;1.37;;;20.50;99.90;;;;;;4934420;29;20241;-74
2022/12/09 07:24:55;;;;;;;4.90;1.60;;;20.30;99.90;;;;;;4934591;29;20888;-74
2022/12/09 07:27:23;;;;;;;23.57;16.67;;;20.40;99.90;;;;;;4934822;29;20191;-74
2022/12/09 07:29:51;;;;;;;25.50;15.57;;;20.50;99.90;;;;;;4934927;29;20350;-75
2022/12/09 07:32:18;;;;;;;8.80;2.50;;;20.40;99.90;;;;;;4935055;29;20242;-74
2022/12/09 07:34:46;;;;;;;3.70;1.10;;;20.40;99.90;;;;;;4934572;29;20236;-73
2022/12/09 07:37:14;;;;;;;6.33;3.00;;;20.30;99.90;;;;;;4933294;29;20233;-74
2022/12/09 07:39:42;;;;;;;64.33;44.57;;;20.30;99.90;;;;;;4934981;29;20284;-73
2022/12/09 07:42:09;;;;;;;22.63;12.53;;;20.10;99.90;;;;;;4934888;29;20193;-74
2022/12/09 07:44:37;;;;;;;6.57;2.40;;;20.10;99.90;;;;;;4934228;29;20189;-74
2022/12/09 07:47:05;;;;;;;5.67;1.33;;;20.00;99.90;;;;;;4935279;29;20648;-73
2022/12/09 07:49:33;;;;;;;6.17;1.20;;;19.80;99.90;;;;;;4934846;29;20268;-73
2022/12/09 07:52:00;;;;;;;9.93;5.00;;;19.80;99.90;;;;;;4934465;29;20199;-74
2022/12/09 07:54:28;;;;;;;7.47;1.97;;;19.70;99.90;;;;;;4934442;29;20234;-74
2022/12/09 07:56:56;;;;;;;7.87;1.20;;;19.60;99.90;;;;;;4934262;29;20234;-74
2022/12/09 07:59:24;;;;;;;6.80;1.60;;;19.70;99.90;;;;;;4934408;29;20184;-74
2022/12/09 08:01:51;;;;;;;8.87;3.23;;;19.70;99.90;;;;;;4934363;29;20198;-72
2022/12/09 08:04:19;;;;;;;7.20;1.70;;;19.80;99.90;;;;;;4934265;29;20191;-72
2022/12/09 08:06:47;;;;;;;3.40;1.20;;;19.70;99.90;;;;;;4933272;29;20685;-74
2022/12/09 08:09:15;;;;;;;4.53;1.40;;;19.60;99.90;;;;;;4934535;29;20183;-73
2022/12/09 08:11:42;;;;;;;9.03;1.70;;;19.50;99.90;;;;;;4934629;29;20183;-72
2022/12/09 08:14:11;;;;;;;7.47;1.67;;;19.40;99.90;;;;;;4934142;29;20179;-72
2022/12/09 08:16:39;;;;;;;7.33;1.20;;;19.30;99.90;;;;;;4934488;29;20209;-73
2022/12/09 08:19:07;;;;;;;7.57;1.50;;;19.20;99.90;;;;;;4934656;29;20173;-73
2022/12/09 08:21:35;;;;;;;41.30;7.57;;;19.30;99.90;;;;;;4937423;29;20188;-73
2022/12/09 08:24:06;;;;;;;8.33;1.60;;;19.30;99.90;;;;;;4936231;29;20189;-74
2022/12/09 08:26:37;;;;;;;7.13;1.40;;;19.20;99.90;;;;;;4934498;29;20261;-73
2022/12/09 08:29:13;;;;;;;3.97;1.03;;;19.10;99.90;;;;;;4933930;29;20173;-71
2022/12/09 08:31:41;;;;;;;5.17;1.20;;;19.10;99.90;;;;;;4935334;29;20292;-71
2022/12/09 08:34:09;;;;;;;6.20;1.50;;;19.00;99.90;;;;;;4935276;29;20184;-73
2022/12/09 08:36:37;;;;;;;7.07;2.10;;;18.80;99.90;;;;;;4935707;29;20225;-73
2022/12/09 08:39:05;;;;;;;4.77;1.13;;;18.70;99.90;;;;;;4935911;29;20265;-73
2022/12/09 08:41:34;;;;;;;6.23;1.23;;;18.70;99.90;;;;;;4918322;29;20549;-73
2022/12/09 08:44:15;;;;;;;10.60;1.23;;;18.70;99.90;;;;;;4935521;29;20220;-73
2022/12/09 08:46:49;;;;;;;7.93;1.30;;;18.70;99.90;;;;;;4935813;29;20191;-73
2022/12/09 08:49:20;;;;;;;6.77;1.33;;;18.60;99.90;;;;;;4935370;29;20236;-73
2022/12/09 08:51:51;;;;;;;4.50;1.30;;;18.60;99.90;;;;;;4935475;29;20236;-71
2022/12/09 08:54:19;;;;;;;8.33;1.10;;;18.40;99.90;;;;;;4934795;29;20189;-72
2022/12/09 08:56:50;;;;;;;3.53;1.37;;;18.40;99.90;;;;;;4935384;29;20689;-71
2022/12/09 08:59:18;;;;;;;6.77;1.43;;;18.40;99.90;;;;;;4935331;29;20183;-72
2022/12/09 09:01:47;;;;;;;11.27;1.53;;;18.40;99.90;;;;;;4935109;29;20186;-72
2022/12/09 09:04:17;;;;;;;5.17;1.33;;;18.50;99.90;;;;;;4935431;29;20181;-72
2022/12/09 09:06:48;;;;;;;7.20;1.60;;;18.40;99.90;;;;;;4935541;29;20175;-72
2022/12/09 09:09:16;;;;;;;6.03;1.47;;;18.30;99.90;;;;;;4935097;29;20219;-71
2022/12/09 09:11:44;;;;;;;9.93;1.63;;;18.30;99.90;;;;;;4935174;29;20244;-72
2022/12/09 09:14:13;;;;;;;6.90;1.40;;;18.20;99.90;;;;;;4935417;29;20173;-71
2022/12/09 09:16:43;;;;;;;6.33;1.33;;;18.20;99.90;;;;;;4935516;29;20275;-70
2022/12/09 09:19:17;;;;;;;3.97;1.40;;;18.20;99.90;;;;;;4938606;29;20192;-72
2022/12/09 09:21:45;;;;;;;6.13;1.30;;;18.30;99.90;;;;;;4939025;29;20264;-71
2022/12/09 09:24:16;;;;;;;8.50;1.80;;;18.30;99.90;;;;;;4938768;29;20610;-71
2022/12/09 09:26:44;;;;;;;5.03;1.40;;;18.30;99.90;;;;;;4938447;29;20181;-72
2022/12/09 09:29:16;;;;;;;11.33;1.73;;;18.30;99.90;;;;;;4938860;29;20187;-71
2022/12/09 09:31:47;;;;;;;8.23;1.60;;;18.30;99.90;;;;;;4938442;29;20272;-72
2022/12/09 09:34:16;;;;;;;5.97;2.07;;;18.30;99.90;;;;;;4939058;29;20200;-73
2022/12/09 09:36:43;;;;;;;10.70;1.60;;;18.30;99.90;;;;;;4938440;29;20356;-72
2022/12/09 09:39:11;;;;;;;6.30;1.30;;;18.20;99.90;;;;;;4938498;29;20194;-73
2022/12/09 09:41:56;;;;;;;6.83;1.13;;;18.20;99.90;;;;;;4938262;29;20624;-73
2022/12/09 09:44:35;;;;;;;7.87;1.73;;;18.30;99.90;;;;;;4938489;29;20236;-73
2022/12/09 09:47:14;;;;;;;8.67;2.03;;;18.20;99.90;;;;;;4938685;29;20180;-73
2022/12/09 09:49:47;;;;;;;8.50;1.60;;;18.20;99.90;;;;;;4938093;29;20228;-73
2022/12/09 09:52:18;;;;;;;9.27;1.87;;;18.20;99.90;;;;;;4938059;29;20192;-72
2022/12/09 09:54:46;;;;;;;8.73;1.30;;;18.30;99.90;;;;;;4938837;29;20629;-71
2022/12/09 09:57:25;;;;;;;5.87;1.63;;;18.30;99.90;;;;;;4938427;29;20266;-72
2022/12/09 10:00:11;;;;;;;6.57;1.43;;;18.20;99.90;;;;;;4938239;29;20521;-71
2022/12/09 10:02:51;;;;;;;8.70;1.27;;;18.20;99.90;;;;;;4938076;29;20189;-72
2022/12/09 10:05:34;;;;;;;8.03;1.60;;;18.30;99.90;;;;;;4937746;29;20184;-71
2022/12/09 10:08:31;;;;;;;10.80;2.07;;;18.30;99.90;;;;;;4938248;29;20267;-72
2022/12/09 10:11:21;;;;;;;5.30;1.50;;;18.40;99.90;;;;;;4937911;29;20649;-72
2022/12/09 10:14:08;;;;;;;9.07;1.70;;;18.30;99.90;;;;;;4938149;29;20224;-72
2022/12/09 10:16:45;;;;;;;5.47;1.20;;;18.30;99.90;;;;;;4938117;29;20544;-72
2022/12/09 10:19:35;;;;;;;7.00;1.40;;;18.30;99.90;;;;;;4937866;29;20192;-72
2022/12/09 10:22:21;;;;;;;12.87;1.83;;;18.30;99.90;;;;;;4937740;29;20189;-72
2022/12/09 10:24:57;;;;;;;8.83;1.60;;;18.30;99.90;;;;;;4937970;29;20188;-72
2022/12/09 10:27:25;;;;;;;7.27;1.53;;;18.30;99.90;;;;;;4938000;29;20184;-72
2022/12/09 10:30:01;;;;;;;10.03;2.43;;;18.20;99.90;;;;;;4937055;29;20183;-72
2022/12/09 10:32:36;;;;;;;7.03;1.10;;;18.20;99.90;;;;;;4937627;29;20181;-72
2022/12/09 10:35:31;;;;;;;6.07;1.37;;;18.20;99.90;;;;;;4937569;29;20178;-71
2022/12/09 10:38:10;;;;;;;12.03;2.00;;;18.30;99.90;;;;;;4937635;29;20660;-72
2022/12/09 10:40:52;;;;;;;6.93;1.73;;;18.30;99.90;;;;;;4937652;29;20180;-72
2022/12/09 10:43:42;;;;;;;6.63;1.73;;;18.30;99.90;;;;;;4918906;29;20185;-72
2022/12/09 10:46:22;;;;;;;5.63;1.67;;;18.30;99.90;;;;;;4925188;29;20184;-72
2022/12/09 10:48:52;;;;;;;8.77;1.60;;;18.30;99.90;;;;;;4937675;29;20179;-72
2022/12/09 10:51:24;;;;;;;10.30;2.10;;;18.30;99.90;;;;;;4937324;29;20232;-72
2022/12/09 10:53:59;;;;;;;9.70;1.90;;;18.20;99.90;;;;;;4937463;29;20205;-72
2022/12/09 10:56:33;;;;;;;7.43;1.93;;;18.20;99.90;;;;;;4937002;29;20225;-74
2022/12/09 10:59:19;;;;;;;11.93;1.33;;;18.30;99.90;;;;;;4938072;29;20527;-70
2022/12/09 11:02:19;;;;;;;9.37;2.33;;;18.20;99.90;;;;;;4937094;29;20658;-73
2022/12/09 11:04:47;;;;;;;8.17;1.50;;;18.20;99.90;;;;;;4929649;29;20192;-73
2022/12/09 11:07:19;;;;;;;8.43;1.70;;;18.20;99.90;;;;;;4937014;29;20251;-72
2022/12/09 11:09:53;;;;;;;9.77;1.70;;;18.20;99.90;;;;;;4937617;29;20181;-72
2022/12/09 11:12:27;;;;;;;12.10;1.90;;;18.20;99.90;;;;;;4937041;29;20226;-73
2022/12/09 11:15:01;;;;;;;9.00;2.00;;;18.20;99.90;;;;;;4936843;29;20220;-74
2022/12/09 11:17:35;;;;;;;8.00;1.60;;;18.20;99.90;;;;;;4937001;29;20188;-73
2022/12/09 11:20:23;;;;;;;8.57;1.53;;;18.20;99.90;;;;;;4936994;29;20173;-71
2022/12/09 11:23:01;;;;;;;10.90;2.37;;;18.30;99.90;;;;;;4937231;29;20263;-75
2022/12/09 11:25:32;;;;;;;6.60;1.87;;;18.20;99.90;;;;;;4936550;29;20255;-71
2022/12/09 11:28:05;;;;;;;7.23;1.50;;;18.20;99.90;;;;;;4936857;29;20189;-74
2022/12/09 11:30:39;;;;;;;6.30;2.33;;;18.20;99.90;;;;;;4936967;29;20184;-72
2022/12/09 11:33:07;;;;;;;10.67;2.00;;;18.20;99.90;;;;;;4937272;29;20229;-74
2022/12/09 11:35:37;;;;;;;8.67;1.80;;;18.10;99.90;;;;;;4936600;29;20200;-71
2022/12/09 11:38:33;;;;;;;9.83;2.10;;;18.20;99.90;;;;;;4936923;29;20228;-71
2022/12/09 11:41:06;;;;;;;9.53;2.00;;;18.20;99.90;;;;;;4936488;29;20240;-71
2022/12/09 11:43:50;;;;;;;8.63;2.50;;;18.20;99.90;;;;;;4936727;29;20709;-72
2022/12/09 11:46:27;;;;;;;10.07;1.80;;;18.20;99.90;;;;;;4919506;29;20219;-71
2022/12/09 11:49:15;;;;;;;6.40;1.67;;;18.20;99.90;;;;;;4934596;29;20188;-72
2022/12/09 11:52:04;;;;;;;8.33;1.90;;;18.30;99.90;;;;;;4919324;29;20209;-72
2022/12/09 11:54:41;;;;;;;10.43;1.67;;;18.30;99.90;;;;;;4934641;29;20201;-74
2022/12/09 11:57:38;;;;;;;9.03;2.23;;;18.20;99.90;;;;;;4920609;29;20315;-73
2022/12/09 12:00:31;;;;;;;9.30;1.70;;;18.20;99.90;;;;;;4921069;29;20266;-71
2022/12/09 12:03:24;;;;;;;5.10;1.53;;;18.20;99.90;;;;;;4935635;29;20200;-75
2022/12/09 12:05:54;;;;;;;9.27;1.83;;;18.30;99.90;;;;;;4915734;29;20185;-71
2022/12/09 12:09:02;;;;;;;8.07;2.03;;;18.20;99.90;;;;;;4925713;29;20192;-71
2022/12/09 12:11:54;;;;;;;8.93;1.73;;;18.10;99.90;;;;;;4936249;29;20187;-73
2022/12/09 12:14:29;;;;;;;13.50;2.47;;;18.10;99.90;;;;;;4936131;29;20551;-72
2022/12/09 12:17:24;;;;;;;11.50;1.87;;;18.10;99.90;;;;;;4930281;29;20255;-71
2022/12/09 12:19:55;;;;;;;9.77;2.10;;;18.10;99.90;;;;;;4919188;29;20319;-71
2022/12/09 12:22:57;;;;;;;10.03;2.30;;;18.00;99.90;;;;;;4919122;29;20204;-72
2022/12/09 12:25:52;;;;;;;10.80;2.30;;;18.00;99.90;;;;;;4936354;29;20173;-73
2022/12/09 12:28:47;;;;;;;13.83;2.57;;;17.90;99.90;;;;;;4936057;29;20271;-71
2022/12/09 12:31:32;;;;;;;13.20;2.37;;;17.80;99.90;;;;;;4936078;29;20185;-71
2022/12/09 12:34:32;;;;;;;14.10;1.93;;;17.80;99.90;;;;;;4935338;29;20188;-71
2022/12/09 12:37:05;;;;;;;11.33;2.13;;;17.70;99.90;;;;;;4924968;29;20706;-71
2022/12/09 12:40:03;;;;;;;12.43;1.90;;;17.60;99.90;;;;;;4936066;29;20525;-71
2022/12/09 12:46:16;;;;;;;11.00;2.07;;;17.70;99.90;;;;;;4936049;29;20665;-74
2022/12/09 12:49:33;;;;;;;16.10;2.23;;;17.70;99.90;;;;;;4934798;29;20184;-71
2022/12/09 12:52:31;;;;;;;5.27;1.63;;;17.80;99.90;;;;;;4878039;29;20218;-72
2022/12/09 12:54:58;;;;;;;19.20;1.83;;;17.70;99.90;;;;;;4881475;29;20725;-74
2022/12/09 12:58:01;;;;;;;11.10;2.37;;;17.70;99.90;;;;;;4921835;29;20228;-71
2022/12/09 13:00:53;;;;;;;8.83;1.80;;;17.60;99.90;;;;;;4939230;29;20172;-74
2022/12/09 13:03:36;;;;;;;8.20;2.03;;;17.60;99.90;;;;;;4939528;29;20177;-71
2022/12/09 13:06:04;;;;;;;9.23;1.90;;;17.70;99.90;;;;;;4939369;29;20184;-72
2022/12/09 13:08:55;;;;;;;10.03;1.67;;;17.70;99.90;;;;;;4939787;29;20185;-71
2022/12/09 13:11:50;;;;;;;12.50;2.40;;;17.70;99.90;;;;;;4939737;29;20181;-73
2022/12/09 13:14:24;;;;;;;11.27;2.33;;;17.70;99.90;;;;;;4939144;29;20261;-73
2022/12/09 13:16:53;;;;;;;17.77;2.17;;;17.80;99.90;;;;;;4938847;29;20308;-72
2022/12/09 13:19:37;;;;;;;7.43;1.60;;;17.80;99.90;;;;;;4939251;29;20177;-71
2022/12/09 13:22:05;;;;;;;8.57;1.67;;;17.80;99.90;;;;;;4939309;29;20173;-71